createdAt,value
2023-03-29T00:01:00.175Z,51.30
2023-03-29T00:03:27.730Z,50.39
2023-03-29T00:06:03.266Z,51.67
2023-03-29T00:08:31.595Z,50.57
2023-03-29T00:10:59.477Z,50.58
2023-03-29T00:13:27.320Z,51.70
2023-03-29T00:15:55.325Z,51.10
2023-03-29T00:18:22.996Z,50.84
2023-03-29T00:20:57.065Z,50.45
2023-03-29T00:23:25.087Z,51.99
2023-03-29T00:25:55.837Z,51.28
2023-03-29T00:28:23.038Z,51.36
2023-03-29T00:30:52.715Z,51.32
2023-03-29T00:33:22.995Z,51.76
2023-03-29T00:35:53.352Z,52.57
2023-03-29T00:38:20.030Z,51.71
2023-03-29T00:40:47.472Z,51.37
2023-03-29T00:43:14.757Z,51.66
2023-03-29T00:45:42.229Z,52.16
2023-03-29T00:48:16.531Z,52.36
2023-03-29T00:51:04.061Z,51.08
2023-03-29T00:53:38.533Z,51.82
2023-03-29T00:56:19.966Z,51.39
2023-03-29T00:59:04.924Z,51.66
2023-03-29T01:01:42.160Z,50.44
2023-03-29T01:04:18.603Z,50.20
2023-03-29T01:06:57.235Z,50.16
2023-03-29T01:09:27.207Z,49.27
2023-03-29T01:11:57.645Z,49.61
2023-03-29T01:14:35.834Z,50.37
2023-03-29T01:17:02.478Z,50.11
2023-03-29T01:19:34.446Z,49.63
2023-03-29T01:22:15.651Z,48.94
2023-03-29T01:25:14.647Z,48.89
2023-03-29T01:27:53.373Z,50.29
2023-03-29T01:30:29.045Z,48.45
2023-03-29T01:33:02.851Z,50.07
2023-03-29T01:35:40.333Z,49.11
2023-03-29T01:38:16.225Z,48.90
2023-03-29T01:40:42.796Z,49.21
2023-03-29T01:43:12.406Z,49.84
2023-03-29T01:45:47.545Z,50.50
2023-03-29T01:48:24.766Z,49.15
2023-03-29T01:50:58.471Z,50.62
2023-03-29T01:53:49.671Z,51.05
2023-03-29T01:56:26.531Z,49.49
2023-03-29T01:58:58.254Z,49.56
2023-03-29T02:01:30.037Z,50.14
2023-03-29T02:04:02.828Z,49.06
2023-03-29T02:06:32.966Z,48.99
2023-03-29T02:09:00.171Z,49.17
2023-03-29T02:11:29.288Z,50.34
2023-03-29T02:13:57.331Z,48.75
2023-03-29T02:16:23.903Z,49.37
2023-03-29T02:18:53.032Z,50.74
2023-03-29T02:21:37.331Z,50.46
2023-03-29T02:24:07.589Z,50.70
2023-03-29T02:26:34.635Z,49.45
2023-03-29T02:29:01.505Z,50.99
2023-03-29T02:31:43.815Z,50.12
2023-03-29T02:34:26.840Z,50.58
2023-03-29T02:37:03.108Z,50.67
2023-03-29T02:39:32.408Z,51.35
2023-03-29T02:41:59.623Z,50.96
2023-03-29T02:44:29.829Z,52.35
2023-03-29T02:47:22.093Z,50.73
2023-03-29T02:49:48.887Z,51.63
2023-03-29T02:52:19.465Z,50.95
2023-03-29T02:54:48.571Z,50.92
2023-03-29T02:57:15.186Z,50.56
2023-03-29T02:59:44.213Z,50.67
2023-03-29T03:02:11.854Z,52.69
2023-03-29T03:04:38.495Z,52.03
2023-03-29T03:07:05.439Z,51.89
2023-03-29T03:09:32.055Z,51.85
2023-03-29T03:11:58.623Z,51.92
2023-03-29T03:14:25.406Z,51.52
2023-03-29T03:16:52.870Z,51.38
2023-03-29T03:19:19.908Z,51.36
2023-03-29T03:21:47.072Z,51.17
2023-03-29T03:24:13.774Z,51.21
2023-03-29T03:26:40.349Z,52.13
2023-03-29T03:29:06.969Z,52.94
2023-03-29T03:31:33.728Z,50.45
2023-03-29T03:34:00.421Z,51.60
2023-03-29T03:36:29.069Z,53.22
2023-03-29T03:38:55.723Z,54.31
2023-03-29T03:41:22.718Z,53.77
2023-03-29T03:43:49.639Z,53.15
2023-03-29T03:46:17.230Z,51.37
2023-03-29T03:48:47.137Z,52.74
2023-03-29T03:51:14.113Z,52.41
2023-03-29T03:53:41.078Z,51.92
2023-03-29T03:56:10.930Z,51.09
2023-03-29T03:58:38.119Z,51.81
2023-03-29T04:01:06.069Z,51.18
2023-03-29T04:03:32.716Z,51.88
2023-03-29T04:06:01.250Z,51.89
2023-03-29T04:08:28.009Z,53.56
2023-03-29T04:10:56.255Z,52.28
2023-03-29T04:13:23.636Z,53.13
2023-03-29T04:15:54.133Z,54.06
2023-03-29T04:18:21.570Z,54.28
2023-03-29T04:20:48.841Z,54.43
2023-03-29T04:23:16.028Z,55.97
2023-03-29T04:25:42.676Z,54.77
2023-03-29T04:28:10.926Z,54.61
2023-03-29T04:30:37.551Z,54.74
2023-03-29T04:33:04.301Z,54.11
2023-03-29T04:35:30.941Z,54.27
2023-03-29T04:37:57.556Z,54.27
2023-03-29T04:40:24.159Z,54.44
2023-03-29T04:42:51.740Z,53.82
2023-03-29T04:45:18.600Z,52.81
2023-03-29T04:47:46.230Z,53.07
2023-03-29T04:50:13.905Z,53.52
2023-03-29T04:52:41.007Z,53.58
2023-03-29T04:55:08.262Z,54.26
2023-03-29T04:57:34.920Z,54.27
2023-03-29T05:00:01.601Z,53.06
2023-03-29T05:02:30.988Z,53.74
2023-03-29T05:04:57.648Z,54.40
2023-03-29T05:07:24.657Z,54.09
2023-03-29T05:09:51.276Z,53.32
2023-03-29T05:12:17.792Z,54.28
2023-03-29T05:14:44.427Z,53.12
2023-03-29T05:17:11.003Z,52.63
2023-03-29T05:19:38.414Z,53.52
2023-03-29T05:22:05.010Z,52.89
2023-03-29T05:24:31.748Z,53.92
2023-03-29T05:26:58.377Z,53.38
2023-03-29T05:29:24.989Z,53.11
2023-03-29T05:31:52.576Z,52.99
2023-03-29T05:34:20.058Z,52.31
2023-03-29T05:36:46.602Z,50.96
2023-03-29T05:39:13.528Z,51.70
2023-03-29T05:41:40.472Z,51.59
2023-03-29T05:44:07.345Z,51.08
2023-03-29T05:46:34.289Z,51.45
2023-03-29T05:49:01.720Z,51.06
2023-03-29T05:51:28.403Z,52.53
2023-03-29T05:53:54.936Z,53.83
2023-03-29T05:56:22.512Z,53.58
2023-03-29T05:58:49.530Z,52.37
2023-03-29T06:01:17.963Z,52.68
2023-03-29T06:03:46.259Z,52.74
2023-03-29T06:06:16.562Z,51.79
2023-03-29T06:08:44.528Z,52.11
2023-03-29T06:11:13.256Z,52.40
2023-03-29T06:13:42.197Z,53.35
2023-03-29T06:16:10.432Z,52.45
2023-03-29T06:18:39.748Z,52.45
2023-03-29T06:21:07.997Z,53.92
2023-03-29T06:23:34.926Z,53.85
2023-03-29T06:26:01.766Z,53.41
2023-03-29T06:28:28.679Z,54.36
2023-03-29T06:30:56.661Z,54.78
2023-03-29T06:33:25.278Z,55.35
2023-03-29T06:35:51.912Z,55.05
2023-03-29T06:38:24.710Z,55.25
2023-03-29T06:40:52.761Z,54.58
2023-03-29T06:43:19.341Z,54.73
2023-03-29T06:45:45.866Z,54.73
2023-03-29T06:48:12.578Z,54.65
2023-03-29T06:50:39.093Z,54.92
2023-03-29T06:53:05.701Z,53.64
2023-03-29T06:55:32.393Z,53.31
2023-03-29T06:58:02.205Z,49.90
2023-03-29T07:00:29.907Z,51.30
2023-03-29T07:02:58.727Z,52.31
2023-03-29T07:05:28.282Z,50.62
2023-03-29T07:07:56.729Z,51.05
2023-03-29T07:10:32.147Z,50.67
2023-03-29T07:13:02.708Z,48.68
2023-03-29T07:15:29.559Z,47.72
2023-03-29T07:17:57.503Z,47.42
2023-03-29T07:20:25.254Z,47.49
2023-03-29T07:22:51.885Z,46.87
2023-03-29T07:25:19.857Z,46.38
2023-03-29T07:27:46.524Z,46.93
2023-03-29T07:30:19.084Z,47.42
2023-03-29T07:32:46.761Z,48.27
2023-03-29T07:35:14.958Z,47.23
2023-03-29T07:37:42.973Z,47.79
2023-03-29T07:40:16.094Z,47.84
2023-03-29T07:42:44.012Z,47.25
2023-03-29T07:45:11.477Z,46.73
2023-03-29T07:47:38.459Z,44.45
2023-03-29T07:50:07.438Z,47.33
2023-03-29T07:52:36.506Z,47.60
2023-03-29T07:55:03.056Z,46.50
2023-03-29T07:57:29.683Z,46.54
2023-03-29T07:59:56.364Z,45.35
2023-03-29T08:02:22.911Z,45.39
2023-03-29T08:04:49.885Z,45.43
2023-03-29T08:07:19.910Z,46.69
2023-03-29T08:09:46.721Z,43.85
2023-03-29T08:12:13.280Z,45.65
2023-03-29T08:14:39.885Z,45.71
2023-03-29T08:17:06.543Z,46.25
2023-03-29T08:19:33.149Z,45.16
2023-03-29T08:22:00.699Z,44.23
2023-03-29T08:24:27.334Z,45.73
2023-03-29T08:26:54.012Z,46.03
2023-03-29T08:29:20.707Z,45.34
2023-03-29T08:31:47.239Z,42.70
2023-03-29T08:34:14.290Z,42.16
2023-03-29T08:36:41.369Z,41.89
2023-03-29T08:39:08.013Z,41.21
2023-03-29T08:41:52.918Z,42.10
2023-03-29T08:44:22.511Z,40.38
2023-03-29T08:47:10.607Z,41.93
2023-03-29T08:49:39.788Z,41.83
2023-03-29T08:52:19.768Z,42.09
2023-03-29T08:54:48.737Z,40.53
2023-03-29T08:57:28.148Z,41.08
2023-03-29T08:59:57.435Z,41.15
2023-03-29T09:02:30.584Z,39.74
2023-03-29T09:05:06.044Z,38.69
2023-03-29T09:07:32.691Z,40.11
2023-03-29T09:09:59.575Z,41.52
2023-03-29T09:12:37.956Z,44.47
2023-03-29T09:15:11.686Z,40.29
2023-03-29T09:18:00.081Z,38.76
2023-03-29T09:20:55.825Z,40.75
2023-03-29T09:23:53.197Z,40.34
2023-03-29T09:26:24.138Z,41.65
2023-03-29T09:29:00.506Z,39.14
2023-03-29T09:31:35.303Z,36.57
2023-03-29T09:34:13.679Z,40.08
2023-03-29T09:36:53.372Z,36.18
2023-03-29T09:39:21.284Z,38.19
2023-03-29T09:41:53.853Z,36.11
2023-03-29T09:44:30.777Z,39.56
2023-03-29T09:47:38.151Z,35.05
2023-03-29T09:50:27.216Z,35.61
2023-03-29T09:52:57.344Z,38.69
2023-03-29T09:55:28.711Z,41.35
2023-03-29T09:58:00.696Z,39.58
2023-03-29T10:00:27.372Z,37.93
2023-03-29T10:02:57.195Z,39.99
2023-03-29T10:05:25.994Z,34.85
2023-03-29T10:07:57.693Z,34.80
2023-03-29T10:10:35.043Z,36.92
2023-03-29T10:13:06.018Z,33.12
2023-03-29T10:15:32.908Z,38.20
2023-03-29T10:18:03.396Z,36.37
2023-03-29T10:20:30.175Z,33.56
2023-03-29T10:22:59.133Z,35.30
2023-03-29T10:25:31.818Z,34.61
2023-03-29T10:28:08.408Z,32.28
2023-03-29T10:30:38.242Z,36.34
2023-03-29T10:33:07.484Z,34.26
2023-03-29T10:35:44.333Z,33.39
2023-03-29T10:38:17.464Z,34.12
2023-03-29T10:40:49.891Z,33.40
2023-03-29T10:43:29.794Z,32.38
2023-03-29T10:46:08.095Z,34.22
2023-03-29T10:48:36.134Z,35.61
2023-03-29T10:51:05.608Z,35.01
2023-03-29T10:53:34.984Z,33.39
2023-03-29T10:56:20.323Z,31.20
2023-03-29T10:59:24.419Z,35.49
2023-03-29T11:02:14.197Z,34.61
2023-03-29T11:05:00.289Z,33.71
2023-03-29T11:07:33.460Z,33.57
2023-03-29T11:10:18.217Z,32.65
2023-03-29T11:12:50.062Z,31.22
2023-03-29T11:15:38.497Z,34.10
2023-03-29T11:18:27.661Z,31.19
2023-03-29T11:21:25.142Z,35.33
2023-03-29T11:23:57.914Z,32.49
2023-03-29T11:26:36.810Z,32.18
2023-03-29T11:29:16.223Z,31.67
2023-03-29T11:32:05.486Z,31.44
2023-03-29T11:34:49.590Z,32.29
2023-03-29T11:37:28.237Z,31.01
2023-03-29T11:40:05.676Z,33.83
2023-03-29T11:42:35.999Z,32.59
2023-03-29T11:45:05.060Z,31.99
2023-03-29T11:47:41.132Z,31.74
2023-03-29T11:50:15.538Z,32.85
2023-03-29T11:53:02.070Z,31.97
2023-03-29T11:55:34.647Z,35.41
2023-03-29T11:58:12.165Z,33.10
2023-03-29T12:00:48.192Z,34.28
2023-03-29T12:03:28.478Z,33.61
2023-03-29T12:06:07.903Z,33.11
2023-03-29T12:08:48.117Z,34.14
2023-03-29T12:11:27.399Z,32.17
2023-03-29T12:13:56.387Z,32.68
2023-03-29T12:16:40.762Z,32.21
2023-03-29T12:19:30.405Z,31.47
2023-03-29T12:21:59.501Z,32.64
2023-03-29T12:24:30.701Z,31.56
2023-03-29T12:27:20.686Z,31.11
2023-03-29T12:30:12.571Z,32.15
2023-03-29T12:33:10.172Z,34.13
2023-03-29T12:35:49.748Z,32.46
2023-03-29T12:38:16.211Z,32.67
2023-03-29T12:40:46.368Z,32.31
2023-03-29T12:43:24.132Z,33.48
2023-03-29T12:45:57.189Z,32.62
2023-03-29T12:48:27.241Z,31.80
2023-03-29T12:51:01.081Z,32.95
2023-03-29T12:53:37.078Z,31.90
2023-03-29T12:56:08.172Z,33.26
2023-03-29T12:58:53.472Z,31.75
2023-03-29T13:01:27.151Z,32.39
2023-03-29T13:04:13.865Z,32.24
2023-03-29T13:06:46.681Z,32.68
2023-03-29T13:09:28.446Z,32.71
2023-03-29T13:11:58.642Z,33.88
2023-03-29T13:14:30.247Z,32.27
2023-03-29T13:17:17.728Z,31.70
2023-03-29T13:19:58.665Z,31.00
2023-03-29T13:22:37.016Z,31.17
2023-03-29T13:25:24.426Z,32.16
2023-03-29T13:28:03.355Z,31.13
2023-03-29T13:30:55.274Z,31.78
2023-03-29T13:33:21.879Z,31.28
2023-03-29T13:36:05.817Z,31.38
2023-03-29T13:38:45.524Z,30.45
2023-03-29T13:41:44.866Z,30.64
2023-03-29T13:44:23.734Z,29.83
2023-03-29T13:47:03.140Z,30.90
2023-03-29T13:49:32.651Z,29.57
2023-03-29T13:52:13.281Z,29.44
2023-03-29T13:54:48.121Z,28.84
2023-03-29T13:57:19.365Z,30.14
2023-03-29T14:00:01.355Z,30.91
2023-03-29T14:02:32.703Z,29.93
2023-03-29T14:05:02.100Z,29.41
2023-03-29T14:07:33.404Z,28.18
2023-03-29T14:10:01.298Z,27.68
2023-03-29T14:12:36.023Z,29.23
2023-03-29T14:15:06.233Z,29.14
2023-03-29T14:17:33.710Z,29.51
2023-03-29T14:20:00.970Z,28.16
2023-03-29T14:22:33.837Z,29.66
2023-03-29T14:25:13.260Z,27.83
2023-03-29T14:27:41.758Z,28.43
2023-03-29T14:30:27.577Z,28.94
2023-03-29T14:32:54.721Z,29.49
2023-03-29T14:35:29.646Z,27.71
2023-03-29T14:37:56.612Z,27.89
2023-03-29T14:40:23.718Z,28.89
2023-03-29T14:42:51.290Z,28.69
2023-03-29T14:45:23.271Z,27.14
2023-03-29T14:47:50.897Z,28.27
2023-03-29T14:50:21.360Z,28.33
2023-03-29T14:52:52.291Z,27.68
2023-03-29T14:55:23.662Z,28.29
2023-03-29T14:57:53.285Z,27.57
2023-03-29T15:00:26.910Z,28.00
2023-03-29T15:02:54.894Z,27.97
2023-03-29T15:05:34.410Z,27.29
2023-03-29T15:08:02.907Z,28.58
2023-03-29T15:10:33.404Z,27.14
2023-03-29T15:13:02.680Z,27.81
2023-03-29T15:15:32.939Z,28.30
2023-03-29T15:18:00.937Z,27.22
2023-03-29T15:20:29.154Z,28.19
2023-03-29T15:23:07.706Z,27.51
2023-03-29T15:25:39.347Z,27.07
2023-03-29T15:28:06.405Z,29.08
2023-03-29T15:30:39.127Z,27.80
2023-03-29T15:33:19.370Z,28.67
2023-03-29T15:35:50.465Z,27.71
2023-03-29T15:38:17.841Z,28.97
2023-03-29T15:40:44.580Z,28.37
2023-03-29T15:43:12.000Z,27.35
2023-03-29T15:45:38.549Z,28.28
2023-03-29T15:48:23.581Z,28.62
2023-03-29T15:50:50.577Z,29.36
2023-03-29T15:53:18.304Z,28.15
2023-03-29T15:55:48.036Z,27.58
2023-03-29T15:58:16.894Z,27.02
2023-03-29T16:00:48.269Z,27.24
2023-03-29T16:03:16.154Z,27.61
2023-03-29T16:05:43.993Z,28.33
2023-03-29T16:08:12.966Z,28.23
2023-03-29T16:10:41.502Z,29.06
2023-03-29T16:13:09.861Z,28.48
2023-03-29T16:15:36.877Z,30.88
2023-03-29T16:18:03.821Z,29.24
2023-03-29T16:20:30.495Z,27.67
2023-03-29T16:22:57.070Z,28.43
2023-03-29T16:25:24.279Z,28.53
2023-03-29T16:27:52.567Z,28.22
2023-03-29T16:30:19.928Z,28.09
2023-03-29T16:32:46.797Z,28.52
2023-03-29T16:35:32.144Z,28.58
2023-03-29T16:37:59.001Z,29.18
2023-03-29T16:40:26.014Z,29.67
2023-03-29T16:42:52.622Z,28.97
2023-03-29T16:45:20.304Z,29.75
2023-03-29T16:47:47.198Z,30.18
2023-03-29T16:50:16.502Z,30.43
2023-03-29T16:52:43.233Z,29.56
2023-03-29T16:55:12.360Z,30.11
2023-03-29T16:57:40.171Z,30.38
2023-03-29T17:00:15.927Z,30.25
2023-03-29T17:02:43.736Z,32.12
2023-03-29T17:05:11.944Z,31.88
2023-03-29T17:07:39.618Z,31.76
2023-03-29T17:10:08.336Z,30.66
2023-03-29T17:12:35.492Z,32.65
2023-03-29T17:15:02.718Z,32.47
2023-03-29T17:17:29.402Z,32.68
2023-03-29T17:19:56.708Z,33.86
2023-03-29T17:22:24.273Z,34.08
2023-03-29T17:24:51.297Z,36.09
2023-03-29T17:27:18.827Z,35.68
2023-03-29T17:29:45.438Z,35.61
2023-03-29T17:32:11.972Z,37.12
2023-03-29T17:34:38.953Z,37.51
2023-03-29T17:37:05.636Z,37.23
2023-03-29T17:39:33.161Z,37.76
2023-03-29T17:41:59.817Z,38.91
2023-03-29T17:44:26.992Z,39.34
2023-03-29T17:46:53.715Z,39.43
2023-03-29T17:49:20.767Z,40.55
2023-03-29T17:51:47.343Z,39.11
2023-03-29T17:54:13.933Z,39.22
2023-03-29T17:56:40.914Z,40.16
2023-03-29T17:59:07.730Z,44.27
2023-03-29T18:01:37.006Z,44.23
2023-03-29T18:04:05.232Z,45.56
2023-03-29T18:06:32.205Z,44.57
2023-03-29T18:09:01.418Z,43.87
2023-03-29T18:11:29.526Z,42.57
2023-03-29T18:13:59.904Z,46.95
2023-03-29T18:16:26.814Z,45.43
2023-03-29T18:18:53.437Z,45.53
2023-03-29T18:21:21.040Z,46.22
2023-03-29T18:23:49.356Z,45.66
2023-03-29T18:26:17.323Z,44.99
2023-03-29T18:28:48.209Z,47.25
2023-03-29T18:31:15.632Z,45.58
2023-03-29T18:33:42.714Z,46.13
2023-03-29T18:36:12.927Z,47.44
2023-03-29T18:38:43.427Z,47.74
2023-03-29T18:41:12.652Z,49.52
2023-03-29T18:43:41.210Z,50.26
2023-03-29T18:46:08.241Z,49.35
2023-03-29T18:48:41.879Z,49.92
2023-03-29T18:51:10.464Z,49.46
2023-03-29T18:53:38.776Z,48.92
2023-03-29T18:56:06.534Z,50.46
2023-03-29T18:58:33.798Z,50.45
2023-03-29T19:01:03.728Z,49.61
2023-03-29T19:03:31.782Z,48.90
2023-03-29T19:05:58.469Z,49.01
2023-03-29T19:08:26.339Z,48.67
2023-03-29T19:10:54.049Z,50.21
2023-03-29T19:13:20.583Z,49.86
2023-03-29T19:15:47.644Z,49.22
2023-03-29T19:18:14.389Z,50.84
2023-03-29T19:20:40.948Z,51.15
2023-03-29T19:23:07.535Z,49.92
2023-03-29T19:25:34.196Z,51.04
2023-03-29T19:28:03.388Z,48.23
2023-03-29T19:30:30.826Z,49.56
2023-03-29T19:32:57.320Z,50.14
2023-03-29T19:35:23.966Z,47.55
2023-03-29T19:37:50.695Z,50.53
2023-03-29T19:40:17.365Z,50.03
2023-03-29T19:42:43.951Z,48.46
2023-03-29T19:45:10.859Z,49.39
2023-03-29T19:47:37.534Z,51.80
2023-03-29T19:50:05.023Z,51.69
2023-03-29T19:52:31.602Z,50.09
2023-03-29T19:55:01.385Z,46.10
2023-03-29T19:57:28.358Z,47.18
2023-03-29T19:59:55.103Z,48.87
2023-03-29T20:02:21.687Z,46.90
2023-03-29T20:04:48.319Z,46.74
2023-03-29T20:07:14.917Z,50.04
2023-03-29T20:09:44.570Z,46.98
2023-03-29T20:12:11.895Z,45.83
2023-03-29T20:14:40.313Z,46.46
2023-03-29T20:17:07.410Z,46.04
2023-03-29T20:19:36.743Z,44.94
2023-03-29T20:22:04.632Z,45.79
2023-03-29T20:24:32.710Z,45.39
2023-03-29T20:26:59.464Z,47.08
2023-03-29T20:29:26.014Z,46.43
2023-03-29T20:31:52.736Z,46.21
2023-03-29T20:34:19.362Z,47.53
2023-03-29T20:36:46.813Z,47.38
2023-03-29T20:39:17.712Z,48.03
2023-03-29T20:41:47.520Z,48.19
2023-03-29T20:44:16.852Z,48.42
2023-03-29T20:46:46.523Z,50.05
2023-03-29T20:49:13.365Z,49.85
2023-03-29T20:51:42.481Z,49.07
2023-03-29T20:54:10.061Z,47.89
2023-03-29T20:56:40.078Z,47.29
2023-03-29T20:59:10.675Z,45.78
2023-03-29T21:01:40.543Z,44.83
2023-03-29T21:04:10.965Z,46.19
2023-03-29T21:06:39.603Z,46.94
2023-03-29T21:09:06.251Z,47.20
2023-03-29T21:11:33.482Z,47.39
2023-03-29T21:14:00.165Z,46.89
2023-03-29T21:16:30.053Z,46.32
2023-03-29T21:18:56.670Z,46.82
2023-03-29T21:21:23.281Z,46.53
2023-03-29T21:23:49.867Z,47.57
2023-03-29T21:26:16.530Z,47.11
2023-03-29T21:28:43.398Z,46.46
2023-03-29T21:31:10.060Z,47.03
2023-03-29T21:33:36.653Z,45.74
2023-03-29T21:36:03.370Z,46.32
2023-03-29T21:38:30.167Z,47.57
2023-03-29T21:40:58.184Z,47.83
2023-03-29T21:43:24.823Z,48.10
2023-03-29T21:45:51.539Z,47.48
2023-03-29T21:48:18.578Z,48.24
2023-03-29T21:50:50.011Z,45.98
2023-03-29T21:53:16.842Z,47.46
2023-03-29T21:55:43.468Z,48.15
2023-03-29T21:58:10.026Z,48.21
2023-03-29T22:00:36.718Z,48.23
2023-03-29T22:03:03.934Z,48.86
2023-03-29T22:05:30.581Z,48.49
2023-03-29T22:07:58.744Z,48.63
2023-03-29T22:10:25.622Z,48.67
2023-03-29T22:12:52.601Z,48.11
2023-03-29T22:15:22.484Z,48.45
2023-03-29T22:17:49.235Z,48.01
2023-03-29T22:20:18.530Z,46.96
2023-03-29T22:22:49.773Z,46.24
2023-03-29T22:25:19.781Z,46.14
2023-03-29T22:27:48.551Z,46.97
2023-03-29T22:30:17.092Z,47.91
2023-03-29T22:32:43.692Z,48.43
2023-03-29T22:35:10.778Z,48.58
2023-03-29T22:37:42.046Z,48.60
2023-03-29T22:40:10.622Z,48.99
2023-03-29T22:42:37.178Z,49.51
2023-03-29T22:45:04.750Z,50.30
2023-03-29T22:47:31.330Z,49.30
2023-03-29T22:49:57.919Z,49.32
2023-03-29T22:52:24.522Z,49.79
2023-03-29T22:54:51.227Z,49.25
2023-03-29T22:57:17.782Z,49.70
2023-03-29T22:59:44.417Z,50.92
2023-03-29T23:02:11.035Z,50.25
2023-03-29T23:04:38.793Z,50.49
2023-03-29T23:07:06.308Z,50.57
2023-03-29T23:09:32.988Z,50.19
2023-03-29T23:12:01.137Z,49.51
2023-03-29T23:14:27.889Z,50.04
2023-03-29T23:16:54.461Z,49.91
2023-03-29T23:19:21.027Z,49.84
2023-03-29T23:21:47.594Z,50.58
2023-03-29T23:24:18.839Z,49.24
2023-03-29T23:26:45.785Z,48.54
2023-03-29T23:29:12.561Z,49.10
2023-03-29T23:31:39.165Z,49.84
2023-03-29T23:34:05.821Z,50.23
2023-03-29T23:36:32.396Z,50.52
2023-03-29T23:38:59.634Z,49.97
2023-03-29T23:41:28.279Z,49.90
2023-03-29T23:43:57.647Z,48.65
2023-03-29T23:46:24.698Z,48.37
2023-03-29T23:48:51.782Z,47.97
2023-03-29T23:51:22.877Z,48.08
2023-03-29T23:53:50.073Z,49.36
2023-03-29T23:56:16.884Z,50.38
2023-03-29T23:58:44.420Z,50.45
